sensor_id;sensor_type;location;lat;lon;timestamp;temperature;humidity
15983;DHT22;14442;50.196;8.096;2024-01-25T00:00:17;22.70;38.20
15983;DHT22;14442;50.196;8.096;2024-01-25T00:02:43;22.70;38.20
15983;DHT22;14442;50.196;8.096;2024-01-25T00:05:10;22.70;38.20
15983;DHT22;14442;50.196;8.096;2024-01-25T00:07:46;22.70;38.20
15983;DHT22;14442;50.196;8.096;2024-01-25T00:10:13;22.70;38.20
15983;DHT22;14442;50.196;8.096;2024-01-25T00:12:40;22.70;38.20
15983;DHT22;14442;50.196;8.096;2024-01-25T00:15:07;22.70;38.20
15983;DHT22;14442;50.196;8.096;2024-01-25T00:17:34;22.70;38.20
15983;DHT22;14442;50.196;8.096;2024-01-25T00:20:01;22.70;38.20
15983;DHT22;14442;50.196;8.096;2024-01-25T00:22:28;22.70;38.20
15983;DHT22;14442;50.196;8.096;2024-01-25T00:24:56;22.70;38.20
15983;DHT22;14442;50.196;8.096;2024-01-25T00:27:24;22.70;38.20
15983;DHT22;14442;50.196;8.096;2024-01-25T00:29:50;22.70;38.20
15983;DHT22;14442;50.196;8.096;2024-01-25T00:32:17;22.70;38.20
15983;DHT22;14442;50.196;8.096;2024-01-25T00:34:44;22.70;38.20
15983;DHT22;14442;50.196;8.096;2024-01-25T00:37:11;22.70;38.20
15983;DHT22;14442;50.196;8.096;2024-01-25T00:39:39;22.70;38.20
15983;DHT22;14442;50.196;8.096;2024-01-25T00:42:07;22.70;38.20
15983;DHT22;14442;50.196;8.096;2024-01-25T00:44:37;22.70;38.20
15983;DHT22;14442;50.196;8.096;2024-01-25T00:47:04;22.70;38.20
15983;DHT22;14442;50.196;8.096;2024-01-25T00:49:32;22.70;38.20
15983;DHT22;14442;50.196;8.096;2024-01-25T00:51:59;22.70;38.20
15983;DHT22;14442;50.196;8.096;2024-01-25T00:54:26;22.70;38.20
15983;DHT22;14442;50.196;8.096;2024-01-25T00:56:53;22.70;38.20
15983;DHT22;14442;50.196;8.096;2024-01-25T00:59:22;22.60;38.20
15983;DHT22;14442;50.196;8.096;2024-01-25T01:01:52;22.60;38.20
15983;DHT22;14442;50.196;8.096;2024-01-25T01:04:20;22.60;38.20
15983;DHT22;14442;50.196;8.096;2024-01-25T01:06:47;22.60;38.20
15983;DHT22;14442;50.196;8.096;2024-01-25T01:09:14;22.60;38.30
15983;DHT22;14442;50.196;8.096;2024-01-25T01:11:41;22.60;38.20
15983;DHT22;14442;50.196;8.096;2024-01-25T01:14:08;22.60;38.20
15983;DHT22;14442;50.196;8.096;2024-01-25T01:16:36;22.60;38.30
15983;DHT22;14442;50.196;8.096;2024-01-25T01:19:02;22.60;38.20
15983;DHT22;14442;50.196;8.096;2024-01-25T01:21:32;22.60;38.30
15983;DHT22;14442;50.196;8.096;2024-01-25T01:23:59;22.60;38.30
15983;DHT22;14442;50.196;8.096;2024-01-25T01:26:26;22.60;38.30
15983;DHT22;14442;50.196;8.096;2024-01-25T01:28:52;22.60;38.30
15983;DHT22;14442;50.196;8.096;2024-01-25T01:31:19;22.60;38.30
15983;DHT22;14442;50.196;8.096;2024-01-25T01:33:47;22.60;38.30
15983;DHT22;14442;50.196;8.096;2024-01-25T01:36:14;22.60;38.30
15983;DHT22;14442;50.196;8.096;2024-01-25T01:38:41;22.50;38.20
15983;DHT22;14442;50.196;8.096;2024-01-25T01:41:09;22.50;38.30
15983;DHT22;14442;50.196;8.096;2024-01-25T01:43:37;22.50;38.30
15983;DHT22;14442;50.196;8.096;2024-01-25T01:46:06;22.50;38.30
15983;DHT22;14442;50.196;8.096;2024-01-25T01:48:35;22.50;38.30
15983;DHT22;14442;50.196;8.096;2024-01-25T01:51:04;22.50;38.30
15983;DHT22;14442;50.196;8.096;2024-01-25T01:53:31;22.50;38.30
15983;DHT22;14442;50.196;8.096;2024-01-25T01:55:59;22.50;38.30
15983;DHT22;14442;50.196;8.096;2024-01-25T01:58:27;22.40;38.30
15983;DHT22;14442;50.196;8.096;2024-01-25T02:00:55;22.40;38.30
15983;DHT22;14442;50.196;8.096;2024-01-25T02:03:24;22.40;38.30
15983;DHT22;14442;50.196;8.096;2024-01-25T02:05:51;22.40;38.30
15983;DHT22;14442;50.196;8.096;2024-01-25T02:08:19;22.40;38.30
15983;DHT22;14442;50.196;8.096;2024-01-25T02:10:46;22.40;38.30
15983;DHT22;14442;50.196;8.096;2024-01-25T02:13:13;22.40;38.30
15983;DHT22;14442;50.196;8.096;2024-01-25T02:15:39;22.40;38.40
15983;DHT22;14442;50.196;8.096;2024-01-25T02:18:06;22.40;38.40
15983;DHT22;14442;50.196;8.096;2024-01-25T02:20:33;22.40;38.40
15983;DHT22;14442;50.196;8.096;2024-01-25T02:23:01;22.40;38.40
15983;DHT22;14442;50.196;8.096;2024-01-25T02:25:27;22.40;38.40
15983;DHT22;14442;50.196;8.096;2024-01-25T02:27:54;22.40;38.40
15983;DHT22;14442;50.196;8.096;2024-01-25T02:30:21;22.30;38.50
15983;DHT22;14442;50.196;8.096;2024-01-25T02:32:48;22.30;38.30
15983;DHT22;14442;50.196;8.096;2024-01-25T02:35:14;22.30;38.30
15983;DHT22;14442;50.196;8.096;2024-01-25T02:37:41;22.30;38.40
15983;DHT22;14442;50.196;8.096;2024-01-25T02:40:10;22.30;38.40
15983;DHT22;14442;50.196;8.096;2024-01-25T02:42:37;22.30;38.40
15983;DHT22;14442;50.196;8.096;2024-01-25T02:45:04;22.30;38.40
15983;DHT22;14442;50.196;8.096;2024-01-25T02:47:31;22.30;38.40
15983;DHT22;14442;50.196;8.096;2024-01-25T02:49:58;22.30;38.50
15983;DHT22;14442;50.196;8.096;2024-01-25T02:52:24;22.30;38.50
15983;DHT22;14442;50.196;8.096;2024-01-25T02:54:51;22.30;38.50
15983;DHT22;14442;50.196;8.096;2024-01-25T02:57:19;22.30;38.50
15983;DHT22;14442;50.196;8.096;2024-01-25T02:59:46;22.20;38.40
15983;DHT22;14442;50.196;8.096;2024-01-25T03:02:13;22.20;38.30
15983;DHT22;14442;50.196;8.096;2024-01-25T03:04:39;22.20;38.40
15983;DHT22;14442;50.196;8.096;2024-01-25T03:07:06;22.20;38.40
15983;DHT22;14442;50.196;8.096;2024-01-25T03:09:33;22.20;38.40
15983;DHT22;14442;50.196;8.096;2024-01-25T03:11:59;22.20;38.40
15983;DHT22;14442;50.196;8.096;2024-01-25T03:14:27;22.20;38.40
15983;DHT22;14442;50.196;8.096;2024-01-25T03:16:54;22.20;38.40
15983;DHT22;14442;50.196;8.096;2024-01-25T03:19:24;22.20;38.40
15983;DHT22;14442;50.196;8.096;2024-01-25T03:21:51;22.20;38.40
15983;DHT22;14442;50.196;8.096;2024-01-25T03:24:18;22.20;38.40
15983;DHT22;14442;50.196;8.096;2024-01-25T03:26:44;22.10;38.40
15983;DHT22;14442;50.196;8.096;2024-01-25T03:29:11;22.10;38.40
15983;DHT22;14442;50.196;8.096;2024-01-25T03:31:39;22.10;38.40
15983;DHT22;14442;50.196;8.096;2024-01-25T03:34:06;22.10;38.40
15983;DHT22;14442;50.196;8.096;2024-01-25T03:36:32;22.10;38.40
15983;DHT22;14442;50.196;8.096;2024-01-25T03:39:01;22.10;38.40
15983;DHT22;14442;50.196;8.096;2024-01-25T03:41:28;22.10;38.40
15983;DHT22;14442;50.196;8.096;2024-01-25T03:43:55;22.10;38.40
15983;DHT22;14442;50.196;8.096;2024-01-25T03:46:22;22.10;38.50
15983;DHT22;14442;50.196;8.096;2024-01-25T03:48:50;22.10;38.50
15983;DHT22;14442;50.196;8.096;2024-01-25T03:51:17;22.10;38.50
15983;DHT22;14442;50.196;8.096;2024-01-25T03:53:45;22.00;38.40
15983;DHT22;14442;50.196;8.096;2024-01-25T03:56:12;22.00;38.50
15983;DHT22;14442;50.196;8.096;2024-01-25T03:58:38;22.00;38.50
15983;DHT22;14442;50.196;8.096;2024-01-25T04:01:05;22.00;38.50
15983;DHT22;14442;50.196;8.096;2024-01-25T04:03:32;22.00;38.50
15983;DHT22;14442;50.196;8.096;2024-01-25T04:06:00;22.00;38.50
15983;DHT22;14442;50.196;8.096;2024-01-25T04:08:27;22.00;38.60
15983;DHT22;14442;50.196;8.096;2024-01-25T04:10:54;22.00;38.60
15983;DHT22;14442;50.196;8.096;2024-01-25T04:13:20;22.00;38.60
15983;DHT22;14442;50.196;8.096;2024-01-25T04:15:47;21.90;38.50
15983;DHT22;14442;50.196;8.096;2024-01-25T04:18:14;21.90;38.50
15983;DHT22;14442;50.196;8.096;2024-01-25T04:20:41;21.90;38.60
15983;DHT22;14442;50.196;8.096;2024-01-25T04:23:09;21.90;38.60
15983;DHT22;14442;50.196;8.096;2024-01-25T04:25:36;21.90;38.60
15983;DHT22;14442;50.196;8.096;2024-01-25T04:28:03;21.90;38.60
15983;DHT22;14442;50.196;8.096;2024-01-25T04:30:30;21.90;38.60
15983;DHT22;14442;50.196;8.096;2024-01-25T04:32:58;21.90;38.60
15983;DHT22;14442;50.196;8.096;2024-01-25T04:35:25;21.90;38.70
15983;DHT22;14442;50.196;8.096;2024-01-25T04:37:51;21.80;38.60
15983;DHT22;14442;50.196;8.096;2024-01-25T04:40:19;21.90;38.70
15983;DHT22;14442;50.196;8.096;2024-01-25T04:42:46;21.90;38.70
15983;DHT22;14442;50.196;8.096;2024-01-25T04:45:13;21.80;38.60
15983;DHT22;14442;50.196;8.096;2024-01-25T04:47:39;21.80;38.70
15983;DHT22;14442;50.196;8.096;2024-01-25T04:50:07;21.80;38.70
15983;DHT22;14442;50.196;8.096;2024-01-25T04:52:33;21.80;38.60
15983;DHT22;14442;50.196;8.096;2024-01-25T04:55:00;21.80;38.70
15983;DHT22;14442;50.196;8.096;2024-01-25T04:57:28;21.80;38.70
15983;DHT22;14442;50.196;8.096;2024-01-25T04:59:55;21.80;38.70
15983;DHT22;14442;50.196;8.096;2024-01-25T05:02:22;21.80;38.70
15983;DHT22;14442;50.196;8.096;2024-01-25T05:04:48;21.80;38.70
15983;DHT22;14442;50.196;8.096;2024-01-25T05:07:15;21.80;38.80
15983;DHT22;14442;50.196;8.096;2024-01-25T05:09:42;21.70;38.70
15983;DHT22;14442;50.196;8.096;2024-01-25T05:12:08;21.70;38.70
15983;DHT22;14442;50.196;8.096;2024-01-25T05:14:36;21.80;38.80
15983;DHT22;14442;50.196;8.096;2024-01-25T05:17:03;21.70;38.70
15983;DHT22;14442;50.196;8.096;2024-01-25T05:19:31;21.70;38.70
15983;DHT22;14442;50.196;8.096;2024-01-25T05:21:57;21.70;38.80
15983;DHT22;14442;50.196;8.096;2024-01-25T05:24:24;21.70;38.80
15983;DHT22;14442;50.196;8.096;2024-01-25T05:26:51;21.70;38.80
15983;DHT22;14442;50.196;8.096;2024-01-25T05:29:17;21.70;38.70
15983;DHT22;14442;50.196;8.096;2024-01-25T05:31:45;21.70;38.80
15983;DHT22;14442;50.196;8.096;2024-01-25T05:34:14;21.70;38.80
15983;DHT22;14442;50.196;8.096;2024-01-25T05:36:40;21.60;38.70
15983;DHT22;14442;50.196;8.096;2024-01-25T05:39:07;21.60;38.70
15983;DHT22;14442;50.196;8.096;2024-01-25T05:41:34;21.60;38.70
15983;DHT22;14442;50.196;8.096;2024-01-25T05:44:01;21.60;38.70
15983;DHT22;14442;50.196;8.096;2024-01-25T05:46:27;21.60;38.70
15983;DHT22;14442;50.196;8.096;2024-01-25T05:48:56;21.60;38.70
15983;DHT22;14442;50.196;8.096;2024-01-25T05:51:22;21.60;38.70
15983;DHT22;14442;50.196;8.096;2024-01-25T05:53:49;21.60;38.70
15983;DHT22;14442;50.196;8.096;2024-01-25T05:56:16;21.60;38.80
15983;DHT22;14442;50.196;8.096;2024-01-25T05:58:43;21.60;38.80
15983;DHT22;14442;50.196;8.096;2024-01-25T06:01:09;21.60;38.70
15983;DHT22;14442;50.196;8.096;2024-01-25T06:03:36;21.60;38.80
15983;DHT22;14442;50.196;8.096;2024-01-25T06:06:04;21.60;38.80
15983;DHT22;14442;50.196;8.096;2024-01-25T06:08:33;21.60;38.90
15983;DHT22;14442;50.196;8.096;2024-01-25T06:11:00;21.50;38.70
15983;DHT22;14442;50.196;8.096;2024-01-25T06:13:26;21.50;38.80
15983;DHT22;14442;50.196;8.096;2024-01-25T06:15:53;21.50;38.80
15983;DHT22;14442;50.196;8.096;2024-01-25T06:18:20;21.50;39.50
15983;DHT22;14442;50.196;8.096;2024-01-25T06:20:46;21.50;38.80
15983;DHT22;14442;50.196;8.096;2024-01-25T06:23:14;21.50;38.80
15983;DHT22;14442;50.196;8.096;2024-01-25T06:25:41;21.50;38.90
15983;DHT22;14442;50.196;8.096;2024-01-25T06:28:07;21.50;38.80
15983;DHT22;14442;50.196;8.096;2024-01-25T06:30:34;21.50;38.80
15983;DHT22;14442;50.196;8.096;2024-01-25T06:33:01;21.50;38.90
15983;DHT22;14442;50.196;8.096;2024-01-25T06:35:28;21.50;38.80
15983;DHT22;14442;50.196;8.096;2024-01-25T06:37:56;21.40;38.80
15983;DHT22;14442;50.196;8.096;2024-01-25T06:40:24;21.50;38.90
15983;DHT22;14442;50.196;8.096;2024-01-25T06:42:51;21.50;38.90
15983;DHT22;14442;50.196;8.096;2024-01-25T06:45:17;21.50;38.80
15983;DHT22;14442;50.196;8.096;2024-01-25T06:47:44;21.50;38.70
15983;DHT22;14442;50.196;8.096;2024-01-25T06:50:11;21.50;38.70
15983;DHT22;14442;50.196;8.096;2024-01-25T06:52:38;21.60;38.70
15983;DHT22;14442;50.196;8.096;2024-01-25T06:55:05;21.60;38.70
15983;DHT22;14442;50.196;8.096;2024-01-25T06:57:33;21.60;38.70
15983;DHT22;14442;50.196;8.096;2024-01-25T07:00:00;21.60;38.60
15983;DHT22;14442;50.196;8.096;2024-01-25T07:02:27;21.50;38.60
15983;DHT22;14442;50.196;8.096;2024-01-25T07:04:54;21.50;38.60
15983;DHT22;14442;50.196;8.096;2024-01-25T07:07:21;21.50;38.70
15983;DHT22;14442;50.196;8.096;2024-01-25T07:09:47;21.50;38.70
15983;DHT22;14442;50.196;8.096;2024-01-25T07:12:14;21.50;39.10
15983;DHT22;14442;50.196;8.096;2024-01-25T07:14:42;21.50;38.70
15983;DHT22;14442;50.196;8.096;2024-01-25T07:17:09;21.50;38.80
15983;DHT22;14442;50.196;8.096;2024-01-25T07:19:35;21.50;38.70
15983;DHT22;14442;50.196;8.096;2024-01-25T07:22:02;21.50;38.70
15983;DHT22;14442;50.196;8.096;2024-01-25T07:24:29;21.50;38.80
15983;DHT22;14442;50.196;8.096;2024-01-25T07:26:55;21.50;38.80
15983;DHT22;14442;50.196;8.096;2024-01-25T07:29:22;21.50;38.80
15983;DHT22;14442;50.196;8.096;2024-01-25T07:31:50;21.50;38.70
15983;DHT22;14442;50.196;8.096;2024-01-25T07:34:17;21.60;38.70
15983;DHT22;14442;50.196;8.096;2024-01-25T07:36:44;21.70;38.60
15983;DHT22;14442;50.196;8.096;2024-01-25T07:39:10;21.80;38.50
15983;DHT22;14442;50.196;8.096;2024-01-25T07:41:37;21.80;38.50
15983;DHT22;14442;50.196;8.096;2024-01-25T07:44:04;21.80;38.50
15983;DHT22;14442;50.196;8.096;2024-01-25T07:46:31;21.90;38.50
15983;DHT22;14442;50.196;8.096;2024-01-25T07:48:59;21.90;38.60
15983;DHT22;14442;50.196;8.096;2024-01-25T07:51:26;21.90;38.60
15983;DHT22;14442;50.196;8.096;2024-01-25T07:53:54;21.90;38.60
15983;DHT22;14442;50.196;8.096;2024-01-25T07:56:20;21.80;38.60
15983;DHT22;14442;50.196;8.096;2024-01-25T07:58:48;21.80;38.70
15983;DHT22;14442;50.196;8.096;2024-01-25T08:01:17;21.70;38.70
15983;DHT22;14442;50.196;8.096;2024-01-25T08:03:44;21.70;38.70
15983;DHT22;14442;50.196;8.096;2024-01-25T08:06:12;21.70;38.80
15983;DHT22;14442;50.196;8.096;2024-01-25T08:08:39;21.70;38.80
15983;DHT22;14442;50.196;8.096;2024-01-25T08:11:06;21.70;38.80
15983;DHT22;14442;50.196;8.096;2024-01-25T08:13:33;21.70;38.90
15983;DHT22;14442;50.196;8.096;2024-01-25T08:16:00;21.60;38.70
15983;DHT22;14442;50.196;8.096;2024-01-25T08:18:27;21.60;38.70
15983;DHT22;14442;50.196;8.096;2024-01-25T08:20:55;21.60;38.70
15983;DHT22;14442;50.196;8.096;2024-01-25T08:23:23;21.60;38.70
15983;DHT22;14442;50.196;8.096;2024-01-25T08:25:50;21.60;38.70
15983;DHT22;14442;50.196;8.096;2024-01-25T08:28:17;21.60;38.70
15983;DHT22;14442;50.196;8.096;2024-01-25T08:30:44;21.60;38.70
15983;DHT22;14442;50.196;8.096;2024-01-25T08:33:10;21.60;38.80
15983;DHT22;14442;50.196;8.096;2024-01-25T08:35:37;21.60;38.70
15983;DHT22;14442;50.196;8.096;2024-01-25T08:38:06;21.60;38.70
15983;DHT22;14442;50.196;8.096;2024-01-25T08:40:34;21.60;38.70
15983;DHT22;14442;50.196;8.096;2024-01-25T08:43:00;21.60;38.70
15983;DHT22;14442;50.196;8.096;2024-01-25T08:45:27;21.60;38.70
15983;DHT22;14442;50.196;8.096;2024-01-25T08:47:54;21.60;38.70
15983;DHT22;14442;50.196;8.096;2024-01-25T08:50:21;21.60;38.70
15983;DHT22;14442;50.196;8.096;2024-01-25T08:52:48;21.60;38.70
15983;DHT22;14442;50.196;8.096;2024-01-25T08:55:14;21.60;38.70
15983;DHT22;14442;50.196;8.096;2024-01-25T08:57:42;21.60;38.70
15983;DHT22;14442;50.196;8.096;2024-01-25T09:00:10;21.60;38.70
15983;DHT22;14442;50.196;8.096;2024-01-25T09:02:37;21.60;38.70
15983;DHT22;14442;50.196;8.096;2024-01-25T09:05:04;21.60;38.70
15983;DHT22;14442;50.196;8.096;2024-01-25T09:07:31;21.60;38.70
15983;DHT22;14442;50.196;8.096;2024-01-25T09:09:58;21.60;38.70
15983;DHT22;14442;50.196;8.096;2024-01-25T09:12:25;21.50;38.70
15983;DHT22;14442;50.196;8.096;2024-01-25T09:14:53;21.50;38.70
15983;DHT22;14442;50.196;8.096;2024-01-25T09:17:20;21.50;38.70
15983;DHT22;14442;50.196;8.096;2024-01-25T09:19:48;21.60;38.80
15983;DHT22;14442;50.196;8.096;2024-01-25T09:22:15;21.60;38.70
15983;DHT22;14442;50.196;8.096;2024-01-25T09:24:42;21.50;38.60
15983;DHT22;14442;50.196;8.096;2024-01-25T09:27:09;21.50;38.70
15983;DHT22;14442;50.196;8.096;2024-01-25T09:29:36;21.50;38.70
15983;DHT22;14442;50.196;8.096;2024-01-25T09:32:06;21.60;38.80
15983;DHT22;14442;50.196;8.096;2024-01-25T09:34:33;21.50;38.70
15983;DHT22;14442;50.196;8.096;2024-01-25T09:37:00;21.50;38.70
15983;DHT22;14442;50.196;8.096;2024-01-25T09:39:27;21.50;38.70
15983;DHT22;14442;50.196;8.096;2024-01-25T09:41:54;21.50;38.70
15983;DHT22;14442;50.196;8.096;2024-01-25T09:44:21;21.50;38.70
15983;DHT22;14442;50.196;8.096;2024-01-25T09:46:48;21.50;38.70
15983;DHT22;14442;50.196;8.096;2024-01-25T09:49:16;21.50;38.70
15983;DHT22;14442;50.196;8.096;2024-01-25T09:51:43;21.50;38.70
15983;DHT22;14442;50.196;8.096;2024-01-25T09:54:10;21.50;38.80
15983;DHT22;14442;50.196;8.096;2024-01-25T09:56:38;21.50;38.80
15983;DHT22;14442;50.196;8.096;2024-01-25T09:59:08;21.50;38.70
15983;DHT22;14442;50.196;8.096;2024-01-25T10:01:35;21.50;38.70
15983;DHT22;14442;50.196;8.096;2024-01-25T10:04:01;21.50;38.80
15983;DHT22;14442;50.196;8.096;2024-01-25T10:06:33;21.40;38.80
15983;DHT22;14442;50.196;8.096;2024-01-25T10:09:00;21.40;38.80
15983;DHT22;14442;50.196;8.096;2024-01-25T10:11:27;21.40;38.70
15983;DHT22;14442;50.196;8.096;2024-01-25T10:14:01;21.40;38.80
15983;DHT22;14442;50.196;8.096;2024-01-25T10:16:29;21.40;38.80
15983;DHT22;14442;50.196;8.096;2024-01-25T10:18:56;21.40;38.80
15983;DHT22;14442;50.196;8.096;2024-01-25T10:21:23;21.40;38.80
15983;DHT22;14442;50.196;8.096;2024-01-25T10:23:51;21.40;38.80
15983;DHT22;14442;50.196;8.096;2024-01-25T10:26:20;21.40;38.80
15983;DHT22;14442;50.196;8.096;2024-01-25T10:28:51;21.40;38.80
15983;DHT22;14442;50.196;8.096;2024-01-25T10:31:18;21.40;38.80
15983;DHT22;14442;50.196;8.096;2024-01-25T10:33:46;21.40;38.90
15983;DHT22;14442;50.196;8.096;2024-01-25T10:36:13;21.40;38.90
15983;DHT22;14442;50.196;8.096;2024-01-25T10:38:42;21.40;38.90
15983;DHT22;14442;50.196;8.096;2024-01-25T10:41:13;21.40;38.90
15983;DHT22;14442;50.196;8.096;2024-01-25T10:43:40;21.40;38.90
15983;DHT22;14442;50.196;8.096;2024-01-25T10:46:07;21.40;38.90
15983;DHT22;14442;50.196;8.096;2024-01-25T10:48:35;21.40;38.90
15983;DHT22;14442;50.196;8.096;2024-01-25T10:51:01;21.40;38.90
15983;DHT22;14442;50.196;8.096;2024-01-25T10:53:30;21.30;38.80
15983;DHT22;14442;50.196;8.096;2024-01-25T10:55:57;21.30;38.80
15983;DHT22;14442;50.196;8.096;2024-01-25T10:58:30;21.30;38.80
15983;DHT22;14442;50.196;8.096;2024-01-25T11:00:57;21.30;38.80
15983;DHT22;14442;50.196;8.096;2024-01-25T11:03:25;21.30;38.90
15983;DHT22;14442;50.196;8.096;2024-01-25T11:05:54;21.30;38.80
15983;DHT22;14442;50.196;8.096;2024-01-25T11:08:21;21.30;38.80
15983;DHT22;14442;50.196;8.096;2024-01-25T11:10:50;21.30;38.90
15983;DHT22;14442;50.196;8.096;2024-01-25T11:13:23;21.30;38.90
15983;DHT22;14442;50.196;8.096;2024-01-25T11:15:52;21.30;38.90
15983;DHT22;14442;50.196;8.096;2024-01-25T11:18:19;21.30;38.90
15983;DHT22;14442;50.196;8.096;2024-01-25T11:20:47;21.30;38.90
15983;DHT22;14442;50.196;8.096;2024-01-25T11:23:16;21.30;38.90
15983;DHT22;14442;50.196;8.096;2024-01-25T11:25:45;21.30;38.90
15983;DHT22;14442;50.196;8.096;2024-01-25T11:28:14;21.30;38.90
15983;DHT22;14442;50.196;8.096;2024-01-25T11:30:42;21.30;38.90
15983;DHT22;14442;50.196;8.096;2024-01-25T11:33:11;21.30;38.90
15983;DHT22;14442;50.196;8.096;2024-01-25T11:35:39;21.30;38.90
15983;DHT22;14442;50.196;8.096;2024-01-25T11:38:09;21.20;38.90
15983;DHT22;14442;50.196;8.096;2024-01-25T11:40:35;21.30;38.90
15983;DHT22;14442;50.196;8.096;2024-01-25T11:43:05;21.20;38.80
15983;DHT22;14442;50.196;8.096;2024-01-25T11:45:35;21.20;38.80
15983;DHT22;14442;50.196;8.096;2024-01-25T11:48:07;21.20;38.80
15983;DHT22;14442;50.196;8.096;2024-01-25T11:50:36;21.20;38.70
15983;DHT22;14442;50.196;8.096;2024-01-25T11:53:03;21.20;38.70
15983;DHT22;14442;50.196;8.096;2024-01-25T11:55:30;21.20;38.80
15983;DHT22;14442;50.196;8.096;2024-01-25T11:57:56;21.20;38.70
15983;DHT22;14442;50.196;8.096;2024-01-25T12:00:23;21.20;38.80
15983;DHT22;14442;50.196;8.096;2024-01-25T12:02:50;21.20;38.80
15983;DHT22;14442;50.196;8.096;2024-01-25T12:05:17;21.20;38.80
15983;DHT22;14442;50.196;8.096;2024-01-25T12:07:45;21.20;38.80
15983;DHT22;14442;50.196;8.096;2024-01-25T12:10:16;21.20;38.80
15983;DHT22;14442;50.196;8.096;2024-01-25T12:12:43;21.20;38.80
15983;DHT22;14442;50.196;8.096;2024-01-25T12:15:09;21.20;38.70
15983;DHT22;14442;50.196;8.096;2024-01-25T12:17:36;21.30;38.90
15983;DHT22;14442;50.196;8.096;2024-01-25T12:20:05;21.20;38.70
15983;DHT22;14442;50.196;8.096;2024-01-25T12:22:36;21.30;38.80
15983;DHT22;14442;50.196;8.096;2024-01-25T12:25:06;21.30;38.80
15983;DHT22;14442;50.196;8.096;2024-01-25T12:27:33;21.30;38.80
15983;DHT22;14442;50.196;8.096;2024-01-25T12:30:00;21.30;38.80
15983;DHT22;14442;50.196;8.096;2024-01-25T12:32:29;21.30;38.80
15983;DHT22;14442;50.196;8.096;2024-01-25T12:34:56;21.30;38.80
15983;DHT22;14442;50.196;8.096;2024-01-25T12:37:23;21.30;38.80
15983;DHT22;14442;50.196;8.096;2024-01-25T12:39:51;21.30;38.80
15983;DHT22;14442;50.196;8.096;2024-01-25T12:42:20;21.30;38.80
15983;DHT22;14442;50.196;8.096;2024-01-25T12:44:47;21.30;38.70
15983;DHT22;14442;50.196;8.096;2024-01-25T12:47:14;21.30;38.80
15983;DHT22;14442;50.196;8.096;2024-01-25T12:49:41;21.30;38.80
15983;DHT22;14442;50.196;8.096;2024-01-25T12:52:08;21.30;38.80
15983;DHT22;14442;50.196;8.096;2024-01-25T12:54:35;21.30;38.80
15983;DHT22;14442;50.196;8.096;2024-01-25T12:57:03;21.30;38.70
15983;DHT22;14442;50.196;8.096;2024-01-25T12:59:31;21.30;38.70
15983;DHT22;14442;50.196;8.096;2024-01-25T13:01:58;21.30;38.80
15983;DHT22;14442;50.196;8.096;2024-01-25T13:04:25;21.30;38.90
15983;DHT22;14442;50.196;8.096;2024-01-25T13:06:53;21.20;38.80
15983;DHT22;14442;50.196;8.096;2024-01-25T13:09:20;21.20;38.80
15983;DHT22;14442;50.196;8.096;2024-01-25T13:11:47;21.20;38.80
15983;DHT22;14442;50.196;8.096;2024-01-25T13:14:14;21.20;38.80
15983;DHT22;14442;50.196;8.096;2024-01-25T13:16:42;21.20;38.80
15983;DHT22;14442;50.196;8.096;2024-01-25T13:19:08;21.20;38.90
15983;DHT22;14442;50.196;8.096;2024-01-25T13:21:37;21.20;38.80
15983;DHT22;14442;50.196;8.096;2024-01-25T13:24:04;21.20;38.80
15983;DHT22;14442;50.196;8.096;2024-01-25T13:26:31;21.20;38.90
15983;DHT22;14442;50.196;8.096;2024-01-25T13:28:57;21.20;38.80
15983;DHT22;14442;50.196;8.096;2024-01-25T13:31:24;21.20;38.90
15983;DHT22;14442;50.196;8.096;2024-01-25T13:33:52;21.20;38.80
15983;DHT22;14442;50.196;8.096;2024-01-25T13:36:19;21.20;38.90
15983;DHT22;14442;50.196;8.096;2024-01-25T13:38:46;21.20;39.00
15983;DHT22;14442;50.196;8.096;2024-01-25T13:41:12;21.20;39.00
15983;DHT22;14442;50.196;8.096;2024-01-25T13:43:39;21.20;39.00
15983;DHT22;14442;50.196;8.096;2024-01-25T13:46:06;21.10;38.90
15983;DHT22;14442;50.196;8.096;2024-01-25T13:48:33;21.10;38.90
15983;DHT22;14442;50.196;8.096;2024-01-25T13:51:01;21.10;38.90
15983;DHT22;14442;50.196;8.096;2024-01-25T13:53:28;21.10;38.90
15983;DHT22;14442;50.196;8.096;2024-01-25T13:55:54;21.10;38.90
15983;DHT22;14442;50.196;8.096;2024-01-25T13:58:21;21.10;38.90
15983;DHT22;14442;50.196;8.096;2024-01-25T14:00:48;21.10;38.90
15983;DHT22;14442;50.196;8.096;2024-01-25T14:03:15;21.00;38.90
15983;DHT22;14442;50.196;8.096;2024-01-25T14:05:42;21.00;38.90
15983;DHT22;14442;50.196;8.096;2024-01-25T14:08:10;21.00;38.90
15983;DHT22;14442;50.196;8.096;2024-01-25T14:10:36;21.00;38.90
15983;DHT22;14442;50.196;8.096;2024-01-25T14:13:03;21.00;39.00
15983;DHT22;14442;50.196;8.096;2024-01-25T14:15:30;20.90;38.90
15983;DHT22;14442;50.196;8.096;2024-01-25T14:17:59;21.00;39.00
15983;DHT22;14442;50.196;8.096;2024-01-25T14:20:26;21.00;38.90
15983;DHT22;14442;50.196;8.096;2024-01-25T14:22:53;21.00;39.00
15983;DHT22;14442;50.196;8.096;2024-01-25T14:25:21;21.00;39.10
15983;DHT22;14442;50.196;8.096;2024-01-25T14:27:47;21.00;39.00
15983;DHT22;14442;50.196;8.096;2024-01-25T14:30:15;21.00;39.00
15983;DHT22;14442;50.196;8.096;2024-01-25T14:32:41;21.00;38.90
15983;DHT22;14442;50.196;8.096;2024-01-25T14:35:08;21.00;39.10
15983;DHT22;14442;50.196;8.096;2024-01-25T14:37:35;21.00;39.20
15983;DHT22;14442;50.196;8.096;2024-01-25T14:40:02;21.00;39.30
15983;DHT22;14442;50.196;8.096;2024-01-25T14:42:30;21.00;39.40
15983;DHT22;14442;50.196;8.096;2024-01-25T14:44:57;21.00;39.30
15983;DHT22;14442;50.196;8.096;2024-01-25T14:47:24;21.00;39.40
15983;DHT22;14442;50.196;8.096;2024-01-25T14:49:51;21.00;39.40
15983;DHT22;14442;50.196;8.096;2024-01-25T14:52:18;21.10;39.60
15983;DHT22;14442;50.196;8.096;2024-01-25T14:54:44;21.10;39.40
15983;DHT22;14442;50.196;8.096;2024-01-25T14:57:11;21.30;39.40
15983;DHT22;14442;50.196;8.096;2024-01-25T14:59:39;21.40;39.50
15983;DHT22;14442;50.196;8.096;2024-01-25T15:02:07;21.40;39.50
15983;DHT22;14442;50.196;8.096;2024-01-25T15:04:34;21.30;39.50
15983;DHT22;14442;50.196;8.096;2024-01-25T15:07:00;21.30;39.50
15983;DHT22;14442;50.196;8.096;2024-01-25T15:09:27;21.30;39.70
15983;DHT22;14442;50.196;8.096;2024-01-25T15:11:54;21.30;39.90
15983;DHT22;14442;50.196;8.096;2024-01-25T15:14:21;21.30;40.10
15983;DHT22;14442;50.196;8.096;2024-01-25T15:16:49;21.30;40.20
15983;DHT22;14442;50.196;8.096;2024-01-25T15:19:15;21.30;40.20
15983;DHT22;14442;50.196;8.096;2024-01-25T15:21:42;21.30;40.20
15983;DHT22;14442;50.196;8.096;2024-01-25T15:24:09;21.30;40.20
15983;DHT22;14442;50.196;8.096;2024-01-25T15:26:39;21.30;40.20
15983;DHT22;14442;50.196;8.096;2024-01-25T15:29:06;21.30;40.20